createdAt,value
2024-02-03T00:01:22.171Z,50.69
2024-02-03T00:04:07.317Z,50.06
2024-02-03T00:06:52.251Z,50.30
2024-02-03T00:09:37.224Z,49.75
2024-02-03T00:12:22.105Z,49.96
2024-02-03T00:15:07.144Z,50.61
2024-02-03T00:17:51.980Z,52.22
2024-02-03T00:20:36.885Z,51.35
2024-02-03T00:23:21.863Z,50.84
2024-02-03T00:26:07.051Z,50.32
2024-02-03T00:28:52.056Z,50.28
2024-02-03T00:31:37.093Z,50.48
2024-02-03T00:34:22.233Z,50.89
2024-02-03T00:37:07.211Z,51.67
2024-02-03T00:39:52.397Z,51.28
2024-02-03T00:42:37.354Z,51.27
2024-02-03T00:45:22.426Z,52.31
2024-02-03T00:48:07.620Z,52.88
2024-02-03T00:50:52.460Z,51.03
2024-02-03T00:53:37.380Z,50.84
2024-02-03T00:56:22.341Z,50.70
2024-02-03T00:59:07.322Z,51.09
2024-02-03T01:01:52.410Z,50.89
2024-02-03T01:04:37.338Z,50.94
2024-02-03T01:07:22.247Z,52.29
2024-02-03T01:10:07.234Z,51.44
2024-02-03T01:12:52.236Z,51.03
2024-02-03T01:15:37.329Z,51.36
2024-02-03T01:18:22.463Z,50.82
2024-02-03T01:21:07.287Z,51.08
2024-02-03T01:23:52.164Z,51.57
2024-02-03T01:26:36.998Z,51.70
2024-02-03T01:29:21.962Z,51.86
2024-02-03T01:32:06.894Z,51.70
2024-02-03T01:34:52.098Z,52.08
2024-02-03T01:37:37.047Z,52.56
2024-02-03T01:40:22.091Z,52.86
2024-02-03T01:43:07.007Z,52.28
2024-02-03T01:45:51.887Z,52.27
2024-02-03T01:48:36.985Z,53.26
2024-02-03T01:51:21.798Z,53.02
2024-02-03T01:54:06.913Z,52.59
2024-02-03T01:56:51.915Z,52.87
2024-02-03T01:59:36.901Z,51.62
2024-02-03T02:02:21.794Z,51.42
2024-02-03T02:05:06.618Z,51.37
2024-02-03T02:07:51.767Z,51.58
2024-02-03T02:10:36.710Z,51.27
2024-02-03T02:13:21.822Z,50.73
2024-02-03T02:16:06.780Z,50.93
2024-02-03T02:18:51.902Z,51.84
2024-02-03T02:21:37.007Z,51.54
2024-02-03T02:24:21.874Z,51.34
2024-02-03T02:27:06.927Z,52.22
2024-02-03T02:29:51.782Z,52.36
2024-02-03T02:32:37.137Z,51.37
2024-02-03T02:35:21.732Z,50.86
2024-02-03T02:38:06.586Z,51.34
2024-02-03T02:40:51.471Z,52.08
2024-02-03T02:43:36.537Z,52.52
2024-02-03T02:46:21.605Z,53.35
2024-02-03T02:49:06.627Z,52.16
2024-02-03T02:51:51.459Z,52.09
2024-02-03T02:54:36.423Z,53.09
2024-02-03T02:57:21.428Z,52.94
2024-02-03T03:00:06.488Z,52.51
2024-02-03T03:02:51.322Z,53.01
2024-02-03T03:05:36.324Z,53.11
2024-02-03T03:08:21.318Z,54.56
2024-02-03T03:11:06.190Z,52.94
2024-02-03T03:13:51.286Z,52.56
2024-02-03T03:16:36.209Z,53.55
2024-02-03T03:19:21.268Z,53.26
2024-02-03T03:22:06.443Z,51.66
2024-02-03T03:24:51.586Z,51.86
2024-02-03T03:27:36.558Z,51.54
2024-02-03T03:30:21.522Z,51.13
2024-02-03T03:33:06.492Z,50.51
2024-02-03T03:35:51.547Z,50.56
2024-02-03T03:38:36.425Z,51.94
2024-02-03T03:41:21.384Z,53.26
2024-02-03T03:44:06.299Z,51.21
2024-02-03T03:46:51.241Z,50.76
2024-02-03T03:49:36.283Z,51.08
2024-02-03T03:52:21.165Z,51.60
2024-02-03T03:55:06.225Z,52.64
2024-02-03T03:57:51.255Z,53.00
2024-02-03T04:00:36.240Z,53.61
2024-02-03T04:03:21.083Z,53.53
2024-02-03T04:06:06.099Z,52.69
2024-02-03T04:08:51.031Z,51.87
2024-02-03T04:11:36.210Z,53.03
2024-02-03T04:14:20.940Z,53.05
2024-02-03T04:17:05.789Z,53.05
2024-02-03T04:19:51.076Z,51.58
2024-02-03T04:22:35.825Z,52.56
2024-02-03T04:25:20.750Z,51.51
2024-02-03T04:28:05.823Z,52.18
2024-02-03T04:30:51.004Z,51.44
2024-02-03T04:33:36.017Z,52.05
2024-02-03T04:36:20.811Z,53.07
2024-02-03T04:39:05.781Z,54.22
2024-02-03T04:41:50.810Z,53.16
2024-02-03T04:44:35.780Z,52.93
2024-02-03T04:47:20.742Z,52.98
2024-02-03T04:50:05.833Z,53.30
2024-02-03T04:52:50.712Z,53.26
2024-02-03T04:55:35.809Z,52.58
2024-02-03T04:58:20.811Z,53.38
2024-02-03T05:01:06.070Z,52.72
2024-02-03T05:03:51.388Z,52.30
2024-02-03T05:06:36.386Z,51.14
2024-02-03T05:09:21.336Z,51.96
2024-02-03T05:12:06.154Z,50.35
2024-02-03T05:14:51.046Z,51.40
2024-02-03T05:17:35.992Z,53.54
2024-02-03T05:20:20.930Z,52.94
2024-02-03T05:23:05.887Z,51.55
2024-02-03T05:25:53.635Z,50.67
2024-02-03T05:28:38.874Z,51.14
2024-02-03T05:31:23.709Z,50.68
2024-02-03T05:34:08.697Z,50.69
2024-02-03T05:36:53.734Z,49.82
2024-02-03T05:39:38.591Z,50.46
2024-02-03T05:42:24.129Z,50.72
2024-02-03T05:45:08.926Z,50.71
2024-02-03T05:47:54.028Z,51.76
2024-02-03T05:50:38.890Z,51.41
2024-02-03T05:53:23.889Z,52.71
2024-02-03T05:56:08.893Z,52.97
2024-02-03T05:59:07.945Z,51.61
2024-02-03T06:02:00.443Z,51.31
2024-02-03T06:04:46.290Z,50.98
2024-02-03T06:07:31.220Z,50.97
2024-02-03T06:10:16.078Z,51.32
2024-02-03T06:13:01.073Z,51.52
2024-02-03T06:15:46.010Z,52.17
2024-02-03T06:18:31.082Z,52.43
2024-02-03T06:21:15.922Z,51.97
2024-02-03T06:24:00.881Z,51.35
2024-02-03T06:26:45.878Z,51.01
2024-02-03T06:29:30.832Z,52.80
2024-02-03T06:32:16.378Z,52.49
2024-02-03T06:35:01.496Z,51.46
2024-02-03T06:37:46.370Z,51.10
2024-02-03T06:40:31.475Z,51.61
2024-02-03T06:43:16.486Z,51.26
2024-02-03T06:46:01.466Z,51.70
2024-02-03T06:48:46.524Z,52.14
2024-02-03T06:51:31.534Z,52.22
2024-02-03T06:54:16.864Z,52.26
2024-02-03T06:57:01.872Z,51.77
2024-02-03T06:59:47.782Z,52.00
2024-02-03T07:02:33.475Z,52.85
2024-02-03T07:05:18.333Z,52.67
2024-02-03T07:08:03.385Z,52.47
2024-02-03T07:10:48.337Z,51.58
2024-02-03T07:13:33.543Z,52.45
2024-02-03T07:16:18.412Z,52.19
2024-02-03T07:19:03.467Z,52.35
2024-02-03T07:21:48.426Z,51.50
2024-02-03T07:24:33.428Z,51.77
2024-02-03T07:27:18.426Z,50.93
2024-02-03T07:30:03.415Z,51.01
2024-02-03T07:32:48.559Z,51.71
2024-02-03T07:35:33.802Z,50.91
2024-02-03T07:38:18.532Z,50.69
2024-02-03T07:41:03.504Z,50.85
2024-02-03T07:43:48.517Z,51.76
2024-02-03T07:46:33.388Z,51.44
2024-02-03T07:49:18.498Z,50.97
2024-02-03T07:52:04.441Z,51.04
2024-02-03T07:54:50.167Z,50.87
2024-02-03T07:57:35.165Z,51.74
2024-02-03T08:00:19.972Z,51.62
2024-02-03T08:03:04.841Z,50.16
2024-02-03T08:05:49.787Z,50.44
2024-02-03T08:08:34.854Z,48.27
2024-02-03T08:11:19.776Z,49.20
2024-02-03T08:14:04.640Z,48.23
2024-02-03T08:16:49.949Z,49.83
2024-02-03T08:19:34.853Z,49.07
2024-02-03T08:22:19.886Z,49.01
2024-02-03T08:25:04.636Z,48.51
2024-02-03T08:27:49.706Z,47.75
2024-02-03T08:30:34.651Z,47.62
2024-02-03T08:33:19.672Z,47.33
2024-02-03T08:36:07.091Z,48.44
2024-02-03T08:38:53.641Z,47.12
2024-02-03T08:41:38.520Z,47.40
2024-02-03T08:44:23.708Z,46.61
2024-02-03T08:47:08.638Z,47.96
2024-02-03T08:49:53.749Z,47.20
2024-02-03T08:52:38.610Z,47.01
2024-02-03T08:55:23.899Z,46.03
2024-02-03T08:58:08.736Z,44.62
2024-02-03T09:00:53.932Z,44.13
2024-02-03T09:03:38.950Z,44.15
2024-02-03T09:06:23.910Z,44.33
2024-02-03T09:09:08.921Z,43.51
2024-02-03T09:11:53.935Z,42.77
2024-02-03T09:14:38.880Z,43.65
2024-02-03T09:17:23.853Z,43.54
2024-02-03T09:20:09.102Z,43.96
2024-02-03T09:22:54.080Z,42.77
2024-02-03T09:25:39.848Z,42.59
2024-02-03T09:28:25.688Z,41.69
2024-02-03T09:31:10.657Z,41.70
2024-02-03T09:33:55.903Z,41.40
2024-02-03T09:39:28.247Z,41.42
2024-02-03T09:42:13.399Z,43.46
2024-02-03T09:44:58.172Z,43.04
2024-02-03T09:47:43.243Z,41.75
2024-02-03T09:50:28.221Z,40.84
2024-02-03T09:53:13.120Z,40.55
2024-02-03T09:55:57.933Z,39.91
2024-02-03T09:58:43.255Z,40.08
2024-02-03T10:01:28.001Z,40.98
2024-02-03T10:04:12.858Z,40.02
2024-02-03T10:06:57.935Z,39.67
2024-02-03T10:12:30.220Z,38.48
2024-02-03T10:15:15.301Z,38.21
2024-02-03T10:18:00.488Z,37.97
2024-02-03T10:20:46.075Z,37.77
2024-02-03T10:23:31.068Z,38.43
2024-02-03T10:26:16.136Z,38.64
2024-02-03T10:29:00.968Z,38.49
2024-02-03T10:31:45.983Z,37.75
2024-02-03T10:34:31.014Z,37.55
2024-02-03T10:37:16.053Z,37.46
2024-02-03T10:40:01.346Z,37.52
2024-02-03T10:42:46.251Z,38.18
2024-02-03T10:45:31.375Z,38.95
2024-02-03T10:48:17.392Z,38.67
2024-02-03T10:51:02.719Z,38.94
2024-02-03T10:53:47.687Z,37.71
2024-02-03T10:56:32.544Z,37.51
2024-02-03T10:59:17.542Z,38.38
2024-02-03T11:02:02.446Z,38.27
2024-02-03T11:04:47.447Z,38.96
2024-02-03T11:07:32.434Z,38.39
2024-02-03T11:10:17.238Z,37.94
2024-02-03T11:13:02.344Z,38.51
2024-02-03T11:15:47.503Z,37.56
2024-02-03T11:18:32.510Z,37.88
2024-02-03T11:21:17.279Z,37.76
2024-02-03T11:24:02.294Z,38.09
2024-02-03T11:26:47.285Z,37.26
2024-02-03T11:29:32.346Z,36.69
2024-02-03T11:32:17.402Z,37.61
2024-02-03T11:35:02.457Z,37.58
2024-02-03T11:37:47.220Z,38.74
2024-02-03T11:40:32.133Z,38.28
2024-02-03T11:43:17.216Z,38.45
2024-02-03T11:46:02.211Z,37.59
2024-02-03T11:48:47.878Z,36.91
2024-02-03T11:51:32.809Z,35.90
2024-02-03T11:54:17.757Z,35.67
2024-02-03T11:57:02.731Z,34.94
2024-02-03T11:59:47.694Z,34.77
2024-02-03T12:02:32.665Z,34.70
2024-02-03T12:05:17.731Z,34.89
2024-02-03T12:08:02.817Z,34.59
2024-02-03T12:10:47.667Z,33.62
2024-02-03T12:13:32.716Z,33.98
2024-02-03T12:16:17.733Z,32.16
2024-02-03T12:19:02.932Z,33.89
2024-02-03T12:21:48.364Z,34.70
2024-02-03T12:24:33.261Z,34.27
2024-02-03T12:27:18.326Z,33.89
2024-02-03T12:30:03.452Z,34.27
2024-02-03T12:32:49.489Z,33.98
2024-02-03T12:35:34.326Z,34.06
2024-02-03T12:38:19.360Z,34.25
2024-02-03T12:41:04.294Z,33.31
2024-02-03T12:43:49.393Z,33.72
2024-02-03T12:46:34.417Z,33.19
2024-02-03T12:49:19.583Z,33.50
2024-02-03T12:52:04.666Z,33.11
2024-02-03T12:54:49.697Z,32.83
2024-02-03T12:57:34.571Z,32.75
2024-02-03T13:00:19.423Z,32.93
2024-02-03T13:03:04.472Z,33.79
2024-02-03T13:05:49.466Z,33.85
2024-02-03T13:08:34.315Z,33.40
2024-02-03T13:11:22.260Z,33.46
2024-02-03T13:14:07.890Z,34.08
2024-02-03T13:16:52.881Z,33.86
2024-02-03T13:19:37.971Z,33.74
2024-02-03T13:22:22.900Z,33.72
2024-02-03T13:25:08.120Z,33.71
2024-02-03T13:27:53.056Z,34.05
2024-02-03T13:30:38.071Z,34.39
2024-02-03T13:33:22.946Z,34.14
2024-02-03T13:36:07.876Z,33.93
2024-02-03T13:38:52.840Z,33.48
2024-02-03T13:41:37.903Z,33.34
2024-02-03T13:44:22.935Z,33.24
2024-02-03T13:47:07.852Z,33.00
2024-02-03T13:49:52.842Z,33.09
2024-02-03T13:52:37.714Z,32.79
2024-02-03T13:55:22.663Z,33.67
2024-02-03T13:58:07.704Z,32.68
2024-02-03T14:00:52.733Z,34.18
2024-02-03T14:03:37.600Z,32.89
2024-02-03T14:06:22.651Z,32.99
2024-02-03T14:09:07.513Z,36.80
2024-02-03T14:11:55.215Z,36.39
2024-02-03T14:14:40.318Z,36.79
2024-02-03T14:17:25.211Z,37.54
2024-02-03T14:20:10.278Z,37.59
2024-02-03T14:22:55.285Z,37.75
2024-02-03T14:25:40.132Z,37.40
2024-02-03T14:28:25.166Z,37.41
2024-02-03T14:31:10.095Z,38.33
2024-02-03T14:33:55.160Z,38.22
2024-02-03T14:36:39.918Z,38.60
2024-02-03T14:39:24.886Z,38.38
2024-02-03T14:42:09.888Z,38.97
2024-02-03T14:44:54.836Z,38.85
2024-02-03T14:47:39.778Z,39.34
2024-02-03T14:50:24.822Z,39.87
2024-02-03T14:53:09.831Z,40.20
2024-02-03T14:55:54.743Z,40.43
2024-02-03T14:58:39.520Z,39.89
2024-02-03T15:01:24.651Z,40.22
2024-02-03T15:04:09.523Z,39.79
2024-02-03T15:06:54.398Z,40.40
2024-02-03T15:09:39.288Z,40.52
2024-02-03T15:12:24.272Z,41.24
2024-02-03T15:15:09.158Z,40.48
2024-02-03T15:17:54.185Z,40.39
2024-02-03T15:20:39.088Z,40.80
2024-02-03T15:23:24.149Z,41.31
2024-02-03T15:26:09.088Z,41.46
2024-02-03T15:28:53.881Z,41.96
2024-02-03T15:31:38.979Z,41.24
2024-02-03T15:34:23.861Z,42.00
2024-02-03T15:37:08.970Z,41.38
2024-02-03T15:39:53.842Z,41.70
2024-02-03T15:42:48.187Z,42.46
2024-02-03T15:45:40.186Z,42.83
2024-02-03T15:48:26.754Z,41.84
2024-02-03T15:51:11.647Z,41.32
2024-02-03T15:53:56.568Z,42.14
2024-02-03T15:56:41.584Z,41.92
2024-02-03T15:59:26.415Z,41.62
2024-02-03T16:02:11.573Z,41.23
2024-02-03T16:04:56.711Z,41.70
2024-02-03T16:07:41.629Z,41.07
2024-02-03T16:10:26.589Z,42.18
2024-02-03T16:13:11.611Z,41.49
2024-02-03T16:15:56.734Z,42.10
2024-02-03T16:18:41.619Z,42.52
2024-02-03T16:21:26.725Z,42.84
2024-02-03T16:24:11.568Z,43.16
2024-02-03T16:26:56.499Z,42.60
2024-02-03T16:29:41.368Z,41.86
2024-02-03T16:32:26.501Z,42.99
2024-02-03T16:35:11.782Z,41.87
2024-02-03T16:37:56.284Z,42.98
2024-02-03T16:40:41.477Z,43.46
2024-02-03T16:43:26.366Z,43.50
2024-02-03T16:46:11.384Z,43.28
2024-02-03T16:48:56.388Z,43.68
2024-02-03T16:51:41.467Z,42.72
2024-02-03T16:54:26.564Z,43.96
2024-02-03T16:57:11.612Z,44.61
2024-02-03T16:59:56.599Z,43.70
2024-02-03T17:02:41.587Z,43.13
2024-02-03T17:05:26.622Z,42.66
2024-02-03T17:08:11.632Z,43.07
2024-02-03T17:10:56.621Z,43.01
2024-02-03T17:13:41.584Z,44.15
2024-02-03T17:16:26.595Z,44.40
2024-02-03T17:19:11.953Z,43.40
2024-02-03T17:21:56.729Z,43.58
2024-02-03T17:24:41.582Z,43.86
2024-02-03T17:27:26.534Z,44.49
2024-02-03T17:30:11.464Z,44.41
2024-02-03T17:32:56.429Z,45.34
2024-02-03T17:35:41.659Z,45.03
2024-02-03T17:38:26.634Z,44.24
2024-02-03T17:41:11.620Z,45.26
2024-02-03T17:43:56.565Z,43.94
2024-02-03T17:46:41.502Z,42.87
2024-02-03T17:49:26.518Z,44.11
2024-02-03T17:52:11.371Z,43.56
2024-02-03T17:54:56.509Z,44.35
2024-02-03T17:57:41.327Z,44.25
2024-02-03T18:00:26.341Z,44.68
2024-02-03T18:03:11.370Z,43.55
2024-02-03T18:05:56.444Z,43.14
2024-02-03T18:08:41.550Z,43.40
2024-02-03T18:11:26.509Z,43.72
2024-02-03T18:14:11.574Z,44.02
2024-02-03T18:16:56.485Z,44.87
2024-02-03T18:19:41.661Z,44.84
2024-02-03T18:22:26.462Z,45.06
2024-02-03T18:25:11.486Z,44.58
2024-02-03T18:27:56.647Z,44.39
2024-02-03T18:30:41.419Z,44.91
2024-02-03T18:33:26.459Z,44.22
2024-02-03T18:36:11.228Z,42.05
2024-02-03T18:38:56.133Z,42.10
2024-02-03T18:41:41.096Z,43.06
2024-02-03T18:44:26.052Z,41.98
2024-02-03T18:47:10.905Z,42.35
2024-02-03T18:49:55.751Z,43.24
2024-02-03T18:52:40.776Z,43.00
2024-02-03T18:55:25.666Z,42.70
2024-02-03T18:58:10.645Z,43.54
2024-02-03T19:00:55.778Z,43.06
2024-02-03T19:03:40.735Z,42.88
2024-02-03T19:06:25.760Z,42.00
2024-02-03T19:09:10.615Z,42.88
2024-02-03T19:11:55.539Z,43.58
2024-02-03T19:14:40.548Z,42.79
2024-02-03T19:17:25.580Z,42.77
2024-02-03T19:20:10.698Z,42.44
2024-02-03T19:22:55.730Z,42.64
2024-02-03T19:25:40.751Z,42.43
2024-02-03T19:28:25.822Z,43.04
2024-02-03T19:31:10.833Z,43.22
2024-02-03T19:33:55.899Z,44.08
2024-02-03T19:36:40.986Z,43.80
2024-02-03T19:39:25.907Z,44.33
2024-02-03T19:42:10.802Z,44.44
2024-02-03T19:44:55.678Z,44.56
2024-02-03T19:47:40.903Z,44.82
2024-02-03T19:50:27.093Z,44.77
2024-02-03T19:53:12.209Z,44.53
2024-02-03T19:55:57.183Z,44.57
2024-02-03T19:58:42.091Z,44.57
2024-02-03T20:01:27.156Z,44.21
2024-02-03T20:04:12.089Z,44.89
2024-02-03T20:06:57.335Z,43.49
2024-02-03T20:09:42.023Z,43.12
2024-02-03T20:12:27.172Z,42.23
2024-02-03T20:15:12.135Z,42.81
2024-02-03T20:17:57.110Z,43.46
2024-02-03T20:20:42.026Z,42.49
2024-02-03T20:23:26.992Z,42.32
2024-02-03T20:26:12.072Z,42.38
2024-02-03T20:28:56.862Z,42.70
2024-02-03T20:31:41.714Z,43.35
2024-02-03T20:34:26.841Z,43.51
2024-02-03T20:37:11.891Z,42.66
2024-02-03T20:39:56.958Z,42.50
2024-02-03T20:42:41.808Z,43.43
2024-02-03T20:45:26.985Z,43.66
2024-02-03T20:48:11.860Z,43.77
2024-02-03T20:50:57.133Z,44.04
2024-02-03T20:53:41.876Z,43.50
2024-02-03T20:56:26.881Z,43.24
2024-02-03T20:59:11.852Z,43.68
2024-02-03T21:01:56.958Z,43.01
2024-02-03T21:04:41.965Z,44.36
2024-02-03T21:07:26.798Z,43.82
2024-02-03T21:10:11.886Z,43.61
2024-02-03T21:12:56.663Z,42.80
2024-02-03T21:15:41.566Z,42.30
2024-02-03T21:18:26.657Z,41.27
2024-02-03T21:21:11.714Z,43.28
2024-02-03T21:23:56.759Z,43.75
2024-02-03T21:26:41.826Z,43.54
2024-02-03T21:29:26.873Z,44.58
2024-02-03T21:32:11.812Z,44.36
2024-02-03T21:34:56.950Z,44.69
2024-02-03T21:37:41.746Z,44.17
2024-02-03T21:40:26.681Z,43.65
2024-02-03T21:43:11.670Z,43.41
2024-02-03T21:45:56.661Z,43.26
2024-02-03T21:48:41.723Z,43.63
2024-02-03T21:51:26.658Z,44.56
2024-02-03T21:54:11.609Z,43.69
2024-02-03T21:56:56.618Z,43.10
2024-02-03T21:59:41.658Z,43.13
2024-02-03T22:02:26.503Z,43.45
2024-02-03T22:05:11.538Z,43.48
2024-02-03T22:07:56.512Z,43.17
2024-02-03T22:10:41.380Z,42.78
2024-02-03T22:13:26.381Z,42.35
2024-02-03T22:16:11.278Z,41.81
2024-02-03T22:18:56.367Z,42.00
2024-02-03T22:21:41.436Z,41.96
2024-02-03T22:24:26.339Z,41.80
2024-02-03T22:27:11.295Z,43.05
2024-02-03T22:29:56.310Z,42.11
2024-02-03T22:32:41.446Z,42.03
2024-02-03T22:35:26.298Z,41.96
2024-02-03T22:38:11.217Z,42.28
2024-02-03T22:40:56.072Z,43.55
2024-02-03T22:43:41.008Z,43.32
2024-02-03T22:46:26.063Z,43.05
2024-02-03T22:49:11.168Z,43.29
2024-02-03T22:51:55.862Z,42.86
2024-02-03T22:54:41.127Z,43.28
2024-02-03T22:57:26.168Z,43.47
2024-02-03T23:00:11.042Z,42.56
2024-02-03T23:02:56.033Z,43.96
2024-02-03T23:05:41.129Z,43.89
2024-02-03T23:08:25.889Z,43.40
2024-02-03T23:11:10.808Z,42.75
2024-02-03T23:13:55.884Z,43.49
2024-02-03T23:16:40.792Z,43.52
2024-02-03T23:19:25.975Z,42.21
2024-02-03T23:22:10.824Z,42.80
2024-02-03T23:24:55.673Z,43.32
2024-02-03T23:27:40.799Z,42.62
2024-02-03T23:30:25.576Z,42.96
2024-02-03T23:33:10.745Z,43.66
2024-02-03T23:35:55.541Z,43.46
2024-02-03T23:38:40.577Z,44.07
2024-02-03T23:41:25.563Z,44.26
2024-02-03T23:44:10.633Z,43.39
2024-02-03T23:46:55.549Z,44.03
2024-02-03T23:49:40.634Z,44.16
2024-02-03T23:52:25.849Z,43.22
2024-02-03T23:55:10.706Z,42.70
2024-02-03T23:57:55.795Z,43.86
